Time;durP1;ratioP1;P1;durP2;ratioP2;P2;SDS_P1;SDS_P2;PMS_P1;PMS_P2;Temp;Humidity;BMP_temperature;BMP_pressure;BME280_temperature;BME280_humidity;BME280_pressure;Samples;Min_cycle;Max_cycle;Signal;HPM_P1;HPM_P2
2022/06/07 00:02:24;;;;;;;12.43;6.82;;;;;;;30.78;68.14;100696.06;5043041;28;66244;-34
2022/06/07 00:04:56;;;;;;;14.25;8.40;;;;;;;30.76;67.71;100683.78;5056268;28;70011;-34
2022/06/07 00:07:27;;;;;;;14.23;8.13;;;;;;;30.81;68.48;100692.94;5060139;28;66134;-35
2022/06/07 00:09:58;;;;;;;16.58;9.23;;;;;;;30.85;69.37;100693.34;5056928;28;68773;-33
2022/06/07 00:12:29;;;;;;;18.45;11.80;;;;;;;30.87;68.79;100696.63;5051346;28;65292;-35
2022/06/07 00:15:00;;;;;;;24.85;10.52;;;;;;;30.90;68.94;100698.91;5051977;28;71189;-35
2022/06/07 00:17:31;;;;;;;16.23;9.13;;;;;;;30.93;68.22;100690.31;5044213;28;65732;-35
2022/06/07 00:20:08;;;;;;;11.25;9.50;;;;;;;30.98;68.54;100690.47;5052915;28;70217;-34
2022/06/07 00:22:39;;;;;;;9.73;8.80;;;;;;;31.15;64.96;100693.41;5050020;28;66330;-36
2022/06/07 00:25:11;;;;;;;13.10;8.63;;;;;;;31.07;64.11;100653.91;5024256;28;69264;-34
2022/06/07 00:27:43;;;;;;;8.82;8.02;;;;;;;31.37;63.54;100685.66;5046828;28;66501;-34
2022/06/07 00:30:14;;;;;;;;;;;;;;;31.06;65.70;100687.44;5048249;28;70335;-34
2022/06/07 00:32:46;;;;;;;14.43;7.75;;;;;;;31.38;62.96;100671.88;5045787;28;66763;-35
2022/06/07 00:35:16;;;;;;;8.48;7.68;;;;;;;31.53;62.21;100682.31;5050891;28;69697;-35
2022/06/07 00:37:48;;;;;;;10.23;7.80;;;;;;;31.61;61.96;100687.41;5054849;28;65145;-35
2022/06/07 00:40:19;;;;;;;8.30;7.53;;;;;;;31.57;61.96;100675.38;5049972;28;69898;-35
2022/06/07 00:42:50;;;;;;;8.35;7.22;;;;;;;31.70;61.66;100687.09;5053467;28;65856;-35
2022/06/07 00:45:28;;;;;;;8.55;7.75;;;;;;;31.77;61.66;100691.34;5057222;28;69816;-35
2022/06/07 00:47:59;;;;;;;12.60;7.53;;;;;;;31.81;61.06;100680.88;5054058;28;65052;-36
2022/06/07 00:50:49;;;;;;;16.07;7.27;;;;;;;31.85;61.46;100686.69;5058166;28;69666;-38
2022/06/07 00:53:25;;;;;;;10.30;7.20;;;;;;;31.84;60.90;100674.97;5054243;28;66409;-35
2022/06/07 00:56:03;;;;;;;;;;;;;;;31.57;62.98;100682.69;5048659;28;69318;-38
2022/06/07 00:58:35;;;;;;;7.45;6.85;;;;;;;31.93;60.73;100684.50;5036936;28;66333;-34
2022/06/07 01:01:08;;;;;;;8.23;7.28;;;;;;;31.98;60.78;100687.34;5040011;28;70645;-34
2022/06/07 01:03:44;;;;;;;7.55;6.40;;;;;;;32.03;60.08;100690.16;5039953;28;66552;-34
2022/06/07 01:11:53;;;;;;;7.63;6.53;;;;;;;32.12;59.93;100700.66;5050647;28;69962;-35
2022/06/07 01:14:24;;;;;;;7.43;6.72;;;;;;;31.88;59.52;100654.47;5046213;28;66428;-35
2022/06/07 01:16:55;;;;;;;7.63;6.85;;;;;;;32.17;59.75;100695.38;5048635;28;69267;-35
2022/06/07 01:19:27;;;;;;;8.23;6.68;;;;;;;32.19;59.77;100704.94;5043663;28;65609;-34
2022/06/07 01:21:57;;;;;;;6.68;6.18;;;;;;;32.23;59.47;100705.28;5048547;28;71602;-36
2022/06/07 01:24:28;;;;;;;8.02;6.97;;;;;;;31.87;59.43;100644.66;5057663;28;67040;-35
2022/06/07 01:27:04;;;;;;;6.78;6.28;;;;;;;32.30;59.23;100705.19;5054396;28;69144;-37
2022/06/07 01:29:36;;;;;;;7.57;6.68;;;;;;;32.31;59.10;100706.84;5043136;28;66563;-35
2022/06/07 01:32:10;;;;;;;6.68;6.07;;;;;;;32.32;58.97;100709.34;5043670;28;70035;-34
2022/06/07 01:34:43;;;;;;;7.40;6.70;;;;;;;32.30;58.99;100694.34;5044343;28;66623;-35
2022/06/07 01:37:17;;;;;;;6.53;5.93;;;;;;;32.37;58.81;100701.28;5048625;28;70207;-35
2022/06/07 01:42:54;;;;;;;6.00;5.50;;;;;;;32.40;58.52;100695.41;5068744;27;70019;-34
2022/06/07 01:45:25;;;;;;;6.63;5.97;;;;;;;32.46;58.66;100699.09;5052636;28;67453;-35
2022/06/07 01:47:56;;;;;;;6.88;6.22;;;;;;;32.48;58.54;100697.81;5041477;28;69219;-34
2022/06/07 01:50:27;;;;;;;7.13;5.85;;;;;;;32.53;58.25;100688.13;5045282;28;66791;-35
2022/06/07 01:52:57;;;;;;;6.63;5.97;;;;;;;32.55;58.44;100686.00;5049511;28;70294;-35
2022/06/07 01:55:30;;;;;;;6.22;5.63;;;;;;;32.56;58.07;100684.94;5043330;28;65513;-35
2022/06/07 01:58:06;;;;;;;6.18;5.18;;;;;;;32.60;58.05;100683.41;5046379;28;70288;-34
2022/06/07 02:00:39;;;;;;;7.43;5.20;;;;;;;32.60;57.96;100689.66;5051374;28;66981;-34
2022/06/07 02:03:10;;;;;;;6.05;5.57;;;;;;;32.64;57.92;100684.56;5043836;28;70453;-35
2022/06/07 02:05:41;;;;;;;6.13;5.70;;;;;;;32.65;57.72;100686.22;5058027;28;66196;-35
2022/06/07 02:08:12;;;;;;;6.47;5.83;;;;;;;32.67;57.75;100679.47;5052111;28;70516;-34
2022/06/07 02:10:43;;;;;;;5.65;5.13;;;;;;;32.70;57.60;100683.63;5044045;28;66155;-35
2022/06/07 02:13:19;;;;;;;6.15;5.50;;;;;;;32.71;57.77;100679.84;5050781;28;70110;-35
2022/06/07 02:15:50;;;;;;;5.57;5.07;;;;;;;32.73;57.69;100677.72;5059328;28;65619;-35
2022/06/07 02:18:21;;;;;;;5.13;4.72;;;;;;;32.72;57.30;100665.19;5052846;28;70130;-35
2022/06/07 02:21:00;;;;;;;5.00;4.60;;;;;;;32.79;57.59;100671.34;5056323;28;66595;-35
2022/06/07 02:23:33;;;;;;;5.10;4.70;;;;;;;32.22;57.13;100567.94;5059429;28;70031;-35
2022/06/07 02:26:17;;;;;;;5.63;5.13;;;;;;;32.83;57.25;100668.97;5059689;28;66383;-35
2022/06/07 02:29:19;;;;;;;5.03;4.63;;;;;;;32.69;57.27;100652.91;5061223;28;70185;-35
2022/06/07 02:32:14;;;;;;;5.22;4.82;;;;;;;32.86;57.34;100658.44;5060960;28;66698;-36
2022/06/07 02:34:47;;;;;;;5.13;4.72;;;;;;;32.90;57.02;100651.47;5058265;28;70533;-35
2022/06/07 02:37:19;;;;;;;5.63;4.55;;;;;;;32.94;56.76;100651.81;5058846;28;66139;-34
2022/06/07 02:39:50;;;;;;;5.32;4.82;;;;;;;32.94;56.68;100652.63;5060686;28;69558;-35
2022/06/07 02:42:25;;;;;;;4.95;4.55;;;;;;;32.13;56.88;100515.09;5049378;28;65971;-35
2022/06/07 02:44:59;;;;;;;5.10;4.57;;;;;;;33.00;56.72;100644.63;5037286;28;70257;-35
2022/06/07 02:47:30;;;;;;;4.88;4.47;;;;;;;33.04;56.81;100651.22;5040756;28;66224;-36
2022/06/07 02:50:08;;;;;;;6.35;4.65;;;;;;;33.01;56.63;100640.84;5056695;28;69273;-35
2022/06/07 02:52:42;;;;;;;11.18;4.85;;;;;;;33.06;56.66;100646.38;5050548;28;66473;-35
2022/06/07 02:55:18;;;;;;;4.57;4.18;;;;;;;33.08;56.56;100645.06;5036759;28;69963;-35
2022/06/07 02:57:52;;;;;;;4.78;4.38;;;;;;;33.11;56.53;100651.91;5041073;28;66655;-35
2022/06/07 03:00:27;;;;;;;7.45;4.38;;;;;;;33.05;56.38;100639.31;5055114;28;69586;-35
2022/06/07 03:02:58;;;;;;;4.93;4.30;;;;;;;33.05;56.39;100637.41;5040866;28;65982;-35
2022/06/07 03:05:30;;;;;;;4.78;4.18;;;;;;;33.19;56.54;100658.88;5040792;28;69942;-35
2022/06/07 03:08:04;;;;;;;4.35;3.95;;;;;;;33.22;56.48;100656.50;5040475;28;67018;-35
2022/06/07 03:10:38;;;;;;;4.82;4.35;;;;;;;33.24;56.27;100651.66;5040446;28;70395;-34
2022/06/07 03:13:09;;;;;;;6.57;4.53;;;;;;;33.25;56.29;100650.56;5039235;28;65793;-36
2022/06/07 03:15:41;;;;;;;4.70;4.40;;;;;;;33.19;56.47;100642.56;5041110;28;69874;-35
2022/06/07 03:18:13;;;;;;;4.97;4.57;;;;;;;33.30;56.30;100656.09;5040313;28;66570;-36
2022/06/07 03:20:47;;;;;;;6.03;4.32;;;;;;;33.28;56.46;100641.94;5039235;28;70155;-34
2022/06/07 03:23:18;;;;;;;5.15;3.92;;;;;;;33.30;56.42;100645.22;5046596;28;66920;-35
2022/06/07 03:26:06;;;;;;;5.97;4.13;;;;;;;33.32;56.27;100656.69;5041370;28;70065;-35
2022/06/07 03:28:43;;;;;;;7.03;4.28;;;;;;;33.35;56.56;100648.06;5057806;28;66367;-36
2022/06/07 03:31:17;;;;;;;5.22;4.82;;;;;;;33.39;56.59;100648.38;5041086;28;69535;-35
2022/06/07 03:33:53;;;;;;;7.07;4.43;;;;;;;33.41;56.17;100653.59;5039681;28;66070;-36
2022/06/07 03:36:30;;;;;;;7.05;4.10;;;;;;;33.41;56.30;100645.44;5055737;28;69376;-35
2022/06/07 03:39:04;;;;;;;5.88;4.53;;;;;;;33.38;56.24;100638.59;5058185;28;66317;-35
2022/06/07 03:41:38;;;;;;;4.32;3.90;;;;;;;33.44;56.04;100642.22;5042820;28;69753;-35
2022/06/07 03:44:15;;;;;;;4.20;3.80;;;;;;;33.48;56.35;100640.66;5038787;28;64593;-35
2022/06/07 03:46:53;;;;;;;5.18;4.05;;;;;;;33.46;56.10;100631.91;5057356;28;69347;-35
2022/06/07 03:49:24;;;;;;;4.10;3.80;;;;;;;33.53;56.04;100627.19;5042900;28;66552;-36
2022/06/07 03:51:59;;;;;;;4.35;4.05;;;;;;;33.51;56.27;100621.13;5052574;28;70499;-36
2022/06/07 03:54:34;;;;;;;4.00;3.70;;;;;;;33.56;56.12;100632.13;5050888;28;65760;-34
2022/06/07 03:57:06;;;;;;;4.33;3.93;;;;;;;33.57;56.25;100628.34;5053295;28;69951;-35
2022/06/07 03:59:39;;;;;;;4.38;3.92;;;;;;;33.59;56.10;100620.78;5039259;28;66053;-36
2022/06/07 04:02:11;;;;;;;6.35;4.32;;;;;;;33.49;56.22;100604.22;5054203;28;69218;-35
2022/06/07 04:04:42;;;;;;;4.15;3.85;;;;;;;33.62;56.00;100617.56;5050149;28;66159;-35
2022/06/07 04:10:06;;;;;;;4.82;3.65;;;;;;;33.66;55.90;100604.31;5037805;28;65940;-35
2022/06/07 04:12:46;;;;;;;5.00;3.80;;;;;;;33.69;56.17;100601.09;5038547;28;69717;-36
2022/06/07 04:15:19;;;;;;;4.35;3.95;;;;;;;33.69;56.06;100580.16;5038260;28;65486;-36
2022/06/07 04:17:53;;;;;;;6.22;4.55;;;;;;;33.72;55.92;100587.81;5053749;28;70032;-35
2022/06/07 04:20:31;;;;;;;4.68;4.18;;;;;;;33.75;56.25;100587.31;5036959;28;66197;-35
2022/06/07 04:23:03;;;;;;;5.23;4.20;;;;;;;33.75;56.36;100581.88;5058476;28;70230;-35
2022/06/07 04:25:39;;;;;;;11.32;4.25;;;;;;;33.74;55.81;100576.66;5056951;28;66208;-36
2022/06/07 04:28:14;;;;;;;5.70;4.20;;;;;;;33.71;55.79;100575.31;5044594;28;70094;-35
2022/06/07 04:30:50;;;;;;;3.75;3.53;;;;;;;33.83;55.70;100591.53;5058304;28;66357;-36
2022/06/07 04:33:27;;;;;;;7.72;4.00;;;;;;;33.85;55.85;100585.81;5047473;28;70428;-35
2022/06/07 04:36:00;;;;;;;4.90;4.10;;;;;;;33.89;55.67;100600.59;5057023;28;66460;-35
2022/06/07 04:38:31;;;;;;;5.10;4.45;;;;;;;33.89;55.93;100587.81;5057443;28;70221;-35
2022/06/07 04:41:08;;;;;;;8.43;4.55;;;;;;;33.89;55.82;100587.00;5041254;28;66102;-36
2022/06/07 04:43:50;;;;;;;4.15;3.80;;;;;;;33.86;55.86;100560.28;5039659;28;69365;-34
2022/06/07 04:46:22;;;;;;;4.20;3.90;;;;;;;33.96;55.84;100571.31;5050535;28;65778;-34
2022/06/07 04:48:56;;;;;;;4.47;4.15;;;;;;;33.99;55.72;100573.53;5051197;28;69915;-36
2022/06/07 04:51:33;;;;;;;4.28;3.97;;;;;;;34.01;55.74;100563.22;5047021;28;65860;-36
2022/06/07 04:54:11;;;;;;;3.88;3.58;;;;;;;34.01;55.83;100563.22;5047157;28;69530;-38
2022/06/07 04:56:45;;;;;;;4.47;4.07;;;;;;;34.04;55.98;100568.16;5040943;28;66811;-36
2022/06/07 04:59:17;;;;;;;6.18;3.92;;;;;;;34.06;55.89;100557.91;5040405;28;69892;-35
2022/06/07 05:01:59;;;;;;;4.63;4.22;;;;;;;34.05;55.89;100548.09;5028438;28;66540;-35
2022/06/07 05:04:33;;;;;;;5.05;4.53;;;;;;;34.11;55.74;100552.53;5039796;28;43618;-34
2022/06/07 05:07:33;;;;;;;4.25;3.65;;;;;;;34.11;55.77;100552.53;5044805;28;66775;-35
2022/06/07 05:10:16;;;;;;;5.03;4.53;;;;;;;34.15;55.62;100552.84;5051925;28;70924;-35
2022/06/07 05:12:51;;;;;;;5.40;4.15;;;;;;;34.16;55.86;100541.72;5052709;28;66411;-35
2022/06/07 05:15:25;;;;;;;4.78;4.38;;;;;;;34.15;55.65;100540.06;5041623;28;69354;-35
2022/06/07 05:18:07;;;;;;;4.18;3.85;;;;;;;34.09;55.28;100532.91;5051739;28;66455;-35
2022/06/07 05:20:41;;;;;;;5.72;4.53;;;;;;;34.21;55.65;100546.38;5051979;28;70441;-35
2022/06/07 05:23:15;;;;;;;4.18;3.88;;;;;;;34.22;55.47;100551.59;5047527;28;66517;-35
2022/06/07 05:26:07;;;;;;;8.85;4.25;;;;;;;34.17;55.48;100540.63;5049085;28;69644;-35
2022/06/07 05:28:41;;;;;;;4.30;3.90;;;;;;;34.25;55.62;100542.09;5037765;28;66363;-35
2022/06/07 05:31:14;;;;;;;4.45;4.15;;;;;;;34.26;55.49;100544.56;5045169;28;70162;-36
2022/06/07 05:33:49;;;;;;;4.40;3.97;;;;;;;34.28;55.40;100543.50;5056803;28;66478;-35
2022/06/07 05:36:21;;;;;;;4.38;3.97;;;;;;;34.29;55.72;100540.50;5041328;28;70093;-36
2022/06/07 05:38:58;;;;;;;4.95;4.10;;;;;;;34.24;55.50;100524.94;5051994;28;65476;-36
2022/06/07 05:41:32;;;;;;;4.22;3.88;;;;;;;34.24;55.49;100514.06;5045876;28;70067;-36
2022/06/07 05:44:11;;;;;;;7.60;4.05;;;;;;;34.29;55.46;100520.63;5038860;28;65269;-36
2022/06/07 05:46:43;;;;;;;4.57;4.28;;;;;;;34.30;55.52;100514.09;5042504;28;69985;-36
2022/06/07 05:49:37;;;;;;;4.05;3.75;;;;;;;34.32;55.88;100514.69;5050949;28;65179;-36
2022/06/07 05:52:11;;;;;;;12.35;4.65;;;;;;;34.24;55.78;100494.16;5044653;28;69880;-41
2022/06/07 05:54:45;;;;;;;5.45;4.28;;;;;;;34.39;55.47;100504.44;5042867;28;65512;-36
2022/06/07 05:57:16;;;;;;;3.80;3.50;;;;;;;34.42;55.68;100509.38;5044884;28;69301;-36
2022/06/07 05:59:49;;;;;;;8.15;3.63;;;;;;;34.44;55.42;100504.50;5048721;28;66351;-35
2022/06/07 06:02:21;;;;;;;3.80;3.50;;;;;;;34.43;55.10;100502.84;5038630;28;69057;-36
2022/06/07 06:04:52;;;;;;;6.97;4.00;;;;;;;34.43;55.17;100491.94;5032441;28;66395;-36
2022/06/07 06:07:23;;;;;;;4.32;3.97;;;;;;;34.45;55.65;100497.97;5043974;28;70158;-35
2022/06/07 06:12:51;;;;;;;3.55;3.25;;;;;;;34.55;55.42;100489.94;5036463;28;69994;-35
2022/06/07 06:15:22;;;;;;;3.97;3.67;;;;;;;34.57;55.29;100481.53;5048743;28;66172;-35
2022/06/07 06:17:55;;;;;;;4.28;3.25;;;;;;;34.59;55.48;100488.38;5043298;28;68913;-36
2022/06/07 06:20:38;;;;;;;7.32;3.63;;;;;;;34.63;55.11;100481.34;5045975;28;66524;-36
2022/06/07 06:23:21;;;;;;;5.60;3.67;;;;;;;34.67;55.32;100476.19;5049150;28;70169;-35
2022/06/07 06:25:56;;;;;;;5.70;3.33;;;;;;;34.69;55.16;100472.13;5039411;28;66388;-35
2022/06/07 06:28:27;;;;;;;4.40;3.38;;;;;;;34.69;55.35;100474.88;5048868;28;68900;-35
2022/06/07 06:31:03;;;;;;;3.90;3.35;;;;;;;34.39;55.19;100411.88;5052796;28;65688;-35
2022/06/07 06:33:44;;;;;;;3.67;3.38;;;;;;;34.75;54.65;100481.19;5051160;28;69666;-35
2022/06/07 06:36:19;;;;;;;3.67;3.30;;;;;;;34.79;55.02;100462.41;5039705;28;66491;-35
2022/06/07 06:38:50;;;;;;;3.38;3.08;;;;;;;34.74;54.97;100446.00;5047811;28;70042;-35
2022/06/07 06:41:27;;;;;;;5.78;3.70;;;;;;;34.60;55.00;100408.31;5042056;28;65344;-35
2022/06/07 06:44:01;;;;;;;3.58;3.28;;;;;;;34.93;54.93;100450.00;5050093;28;70328;-36
2022/06/07 06:46:43;;;;;;;4.03;3.17;;;;;;;34.70;54.81;100416.56;5039191;28;66084;-35
2022/06/07 06:49:18;;;;;;;3.30;3.05;;;;;;;35.01;54.64;100449.56;5055805;28;70646;-35
2022/06/07 06:51:51;;;;;;;2.85;2.65;;;;;;;35.03;55.00;100444.66;5047437;28;66257;-35
2022/06/07 06:54:30;;;;;;;3.30;2.83;;;;;;;35.05;54.88;100434.34;5053859;28;69764;-35
2022/06/07 06:57:06;;;;;;;7.13;2.88;;;;;;;35.08;54.53;100428.41;5054432;27;65816;-35
2022/06/07 06:59:38;;;;;;;5.80;2.97;;;;;;;35.13;54.71;100433.03;5044921;28;69567;-35
2022/06/07 07:02:12;;;;;;;4.97;2.90;;;;;;;35.11;54.63;100419.69;5047259;28;66085;-35
2022/06/07 07:05:04;;;;;;;4.00;3.38;;;;;;;35.19;54.78;100421.13;5060811;28;69985;-36
2022/06/07 07:07:36;;;;;;;6.95;2.83;;;;;;;35.23;54.01;100413.25;5054524;28;65733;-36
2022/06/07 07:10:10;;;;;;;3.05;2.85;;;;;;;35.08;54.48;100384.78;5044208;28;69939;-35
2022/06/07 07:12:41;;;;;;;4.93;3.20;;;;;;;35.33;54.19;100410.59;5045297;28;66763;-35
2022/06/07 07:15:13;;;;;;;2.40;2.20;;;;;;;35.02;54.26;100366.72;5048126;28;71283;-35
2022/06/07 07:17:58;;;;;;;2.95;2.63;;;;;;;35.37;54.30;100395.34;5044928;28;66750;-34
2022/06/07 07:20:31;;;;;;;2.67;2.47;;;;;;;35.43;53.66;100399.72;5027292;28;70322;-35
2022/06/07 07:23:02;;;;;;;3.40;2.90;;;;;;;35.45;54.01;100402.22;5043444;28;64986;-35
2022/06/07 07:25:33;;;;;;;3.78;2.80;;;;;;;35.46;53.98;100399.19;5042819;28;70234;-35
2022/06/07 07:28:04;;;;;;;;;;;;;;;35.21;54.30;100401.75;5042952;28;66040;-35
2022/06/07 07:30:37;;;;;;;2.72;2.53;;;;;;;35.47;53.84;100389.94;5044545;28;69249;-36
2022/06/07 07:33:09;;;;;;;3.13;2.30;;;;;;;35.52;53.25;100370.91;5053711;28;65253;-36
2022/06/07 07:35:45;;;;;;;2.50;2.30;;;;;;;35.34;53.59;100341.31;5049450;28;70433;-34
2022/06/07 07:38:15;;;;;;;1.98;1.88;;;;;;;35.50;53.21;100356.69;5049982;28;65883;-34
2022/06/07 07:40:47;;;;;;;2.40;2.20;;;;;;;35.55;53.15;100359.47;5055732;28;70139;-35
2022/06/07 07:43:19;;;;;;;3.60;2.50;;;;;;;35.62;53.30;100361.16;5043520;28;65286;-35
2022/06/07 07:45:54;;;;;;;4.25;2.17;;;;;;;35.67;53.38;100366.63;5051546;28;69986;-35
2022/06/07 07:48:27;;;;;;;2.35;2.00;;;;;;;35.68;52.96;100351.91;5049042;28;65949;-35
2022/06/07 07:51:07;;;;;;;4.27;2.30;;;;;;;35.68;52.91;100351.91;5060161;28;69209;-35
2022/06/07 07:53:37;;;;;;;2.35;2.15;;;;;;;35.69;52.85;100345.34;5048118;28;65584;-36
2022/06/07 07:56:09;;;;;;;;;;;;;;;35.41;53.70;100346.53;5051585;28;69964;-35
2022/06/07 07:58:44;;;;;;;2.17;1.92;;;;;;;35.66;52.90;100340.41;5050013;28;66422;-35
2022/06/07 08:01:21;;;;;;;2.03;1.75;;;;;;;35.72;53.17;100333.91;5044841;28;70550;-36
2022/06/07 08:03:55;;;;;;;2.13;1.92;;;;;;;35.73;53.17;100336.38;5038961;28;66114;-36
2022/06/07 08:06:34;;;;;;;;;;;;;;;35.46;53.81;100336.47;5055201;28;69746;-34
2022/06/07 08:09:08;;;;;;;5.75;1.95;;;;;;;35.74;53.15;100340.72;5041019;28;66053;-34
2022/06/07 08:11:42;;;;;;;2.50;2.13;;;;;;;35.68;53.18;100330.06;5049884;28;70053;-35
2022/06/07 08:14:18;;;;;;;1.92;1.83;;;;;;;35.46;52.56;100301.00;5051534;28;65583;-35
2022/06/07 08:16:49;;;;;;;2.10;1.85;;;;;;;35.79;52.49;100353.56;5049354;28;69487;-35
2022/06/07 08:19:19;;;;;;;2.30;1.80;;;;;;;35.78;52.69;100347.31;5048010;28;66959;-36
2022/06/07 08:21:51;;;;;;;3.38;2.03;;;;;;;35.80;52.68;100333.38;5051681;28;71088;-35
2022/06/07 08:24:27;;;;;;;2.17;1.98;;;;;;;35.81;52.56;100329.59;5039162;28;66310;-36
2022/06/07 08:26:58;;;;;;;4.32;2.10;;;;;;;35.82;53.17;100333.94;5050063;28;70420;-36
2022/06/07 08:29:29;;;;;;;2.42;2.13;;;;;;;35.82;53.06;100339.41;5057715;28;64985;-35
2022/06/07 08:32:00;;;;;;;2.28;2.00;;;;;;;35.83;52.78;100341.06;5048320;28;69938;-35
2022/06/07 08:37:33;;;;;;;2.83;1.92;;;;;;;35.84;52.83;100329.03;5058502;28;70085;-35
2022/06/07 08:40:27;;;;;;;3.88;1.92;;;;;;;35.80;52.70;100328.78;5043047;28;66103;-35
2022/06/07 08:42:59;;;;;;;2.30;2.10;;;;;;;35.85;53.52;100325.22;5053316;28;70303;-35
2022/06/07 08:45:34;;;;;;;3.60;2.22;;;;;;;35.73;52.67;100306.34;5051875;28;65679;-35
2022/06/07 08:48:26;;;;;;;2.45;1.73;;;;;;;35.80;52.91;100327.91;5040437;28;70158;-35
2022/06/07 08:51:31;;;;;;;3.35;2.47;;;;;;;35.24;53.47;100256.72;5040999;28;66663;-35
2022/06/07 08:54:17;;;;;;;2.13;1.92;;;;;;;35.83;53.10;100348.41;5041930;28;70092;-35
2022/06/07 08:56:48;;;;;;;1.90;1.70;;;;;;;35.86;53.26;100365.09;5053993;28;65885;-35
2022/06/07 08:59:21;;;;;;;1.95;1.40;;;;;;;35.52;52.97;100313.63;5040258;28;70163;-36
2022/06/07 09:02:15;;;;;;;4.03;2.03;;;;;;;35.52;52.93;100321.78;5039277;28;66608;-36
2022/06/07 09:04:46;;;;;;;2.15;1.90;;;;;;;35.79;53.19;100353.56;5039440;28;70577;-35
2022/06/07 09:07:19;;;;;;;2.03;1.90;;;;;;;35.74;53.02;100342.63;5039308;28;65621;-35
2022/06/07 09:13:02;;;;;;;2.38;2.10;;;;;;;35.75;53.25;100369.66;5057390;28;66662;-36
2022/06/07 09:15:36;;;;;;;2.47;1.83;;;;;;;35.53;53.50;100323.44;5058899;28;70336;-36
2022/06/07 09:18:08;;;;;;;5.28;2.05;;;;;;;35.85;53.54;100374.34;5037456;28;65603;-36
2022/06/07 09:20:41;;;;;;;3.78;1.88;;;;;;;35.56;52.93;100328.38;5038137;28;69508;-36
2022/06/07 09:23:34;;;;;;;2.22;2.03;;;;;;;35.83;53.61;100376.53;5040065;28;66278;-36
2022/06/07 09:26:37;;;;;;;5.38;2.40;;;;;;;35.70;53.42;100368.81;5056373;28;69757;-36
2022/06/07 09:29:13;;;;;;;;;;;;;;;35.51;53.99;100369.25;5059795;28;65665;-36
2022/06/07 09:31:46;;;;;;;2.95;2.65;;;;;;;35.80;53.79;100366.13;5045545;28;70259;-35
2022/06/07 09:34:29;;;;;;;6.78;2.30;;;;;;;35.42;53.12;100319.00;5041433;28;66493;-36
2022/06/07 09:37:07;;;;;;;2.35;2.15;;;;;;;35.79;53.76;100375.41;5048113;28;68893;-35
2022/06/07 09:39:41;;;;;;;4.07;2.60;;;;;;;35.73;53.71;100376.47;5057772;28;66728;-35
2022/06/07 09:42:26;;;;;;;4.15;2.30;;;;;;;35.50;53.42;100351.25;5058742;28;69484;-35
2022/06/07 09:45:23;;;;;;;2.58;2.30;;;;;;;35.77;53.90;100399.41;5057389;28;65644;-35
2022/06/07 09:47:54;;;;;;;2.95;2.63;;;;;;;35.78;54.16;100406.53;5056217;28;69516;-35
2022/06/07 09:50:37;;;;;;;4.67;2.40;;;;;;;35.46;53.46;100360.19;5059998;28;66525;-35
2022/06/07 09:53:15;;;;;;;3.58;2.60;;;;;;;35.76;53.50;100398.59;5055802;28;69863;-34
2022/06/07 09:55:54;;;;;;;2.70;2.50;;;;;;;35.51;54.21;100355.59;5042914;28;66053;-36
2022/06/07 09:58:33;;;;;;;4.40;2.70;;;;;;;35.72;54.12;100399.41;5050844;28;70237;-36
2022/06/07 10:01:25;;;;;;;2.72;2.50;;;;;;;35.48;54.16;100379.84;5049435;28;66367;-35
2022/06/07 10:04:11;;;;;;;3.00;2.70;;;;;;;35.72;53.79;100429.41;5044741;28;71436;-36
2022/06/07 10:06:48;;;;;;;6.57;2.80;;;;;;;35.70;53.85;100432.41;5056968;28;65700;-36
2022/06/07 10:09:40;;;;;;;3.53;2.65;;;;;;;35.62;53.95;100434.81;5049990;28;70474;-34
2022/06/07 10:12:13;;;;;;;2.80;2.50;;;;;;;35.66;54.15;100430.44;5058604;28;64988;-35
2022/06/07 10:15:00;;;;;;;2.70;2.50;;;;;;;35.61;54.37;100434.00;5049397;28;70374;-34
2022/06/07 10:18:01;;;;;;;7.03;2.55;;;;;;;35.61;54.33;100444.06;5039023;28;66229;-37
2022/06/07 10:21:26;;;;;;;3.03;2.53;;;;;;;35.22;54.43;100403.44;5041714;28;69703;-35
2022/06/07 10:24:03;;;;;;;3.53;2.97;;;;;;;35.58;54.67;100451.72;5049583;28;67387;-35
2022/06/07 10:26:50;;;;;;;7.28;3.20;;;;;;;35.01;56.26;100408.66;5039359;28;69861;-36
2022/06/07 10:29:40;;;;;;;7.45;3.80;;;;;;;35.14;58.00;100457.34;5055157;28;65247;-38
2022/06/07 10:32:17;;;;;;;6.45;4.20;;;;;;;35.02;59.18;100464.84;5052717;28;70203;-37
2022/06/07 10:34:56;;;;;;;3.53;3.20;;;;;;;34.94;60.26;100457.13;5045949;28;65924;-36
2022/06/07 10:38:20;;;;;;;10.93;4.63;;;;;;;34.79;59.85;100471.41;5056137;28;70000;-36
2022/06/07 10:41:32;;;;;;;10.55;4.55;;;;;;;34.65;60.00;100476.44;5037868;28;65526;-38
2022/06/07 10:44:05;;;;;;;;;;;;;;;34.44;61.19;100504.50;5048803;28;70403;-37
2022/06/07 10:46:40;;;;;;;9.13;4.68;;;;;;;34.67;60.37;100496.09;5053335;28;65576;-36
2022/06/07 10:49:32;;;;;;;11.30;5.10;;;;;;;34.63;60.90;100522.22;5047546;28;69544;-36
2022/06/07 10:52:24;;;;;;;7.88;5.63;;;;;;;34.61;61.89;100510.72;5041399;28;65686;-37
2022/06/07 10:54:57;;;;;;;9.55;5.47;;;;;;;34.65;62.60;100525.47;5039349;28;70139;-38
2022/06/07 10:57:40;;;;;;;10.27;5.35;;;;;;;34.62;61.36;100523.25;5048154;28;66262;-37
2022/06/07 11:00:49;;;;;;;6.82;5.65;;;;;;;34.37;61.78;100509.31;5050485;28;70026;-38
2022/06/07 11:03:19;;;;;;;11.15;6.45;;;;;;;34.58;61.24;100524.88;5054236;28;65453;-38
2022/06/07 11:09:26;;;;;;;9.93;5.20;;;;;;;34.51;62.46;100526.91;5050789;28;66215;-39
2022/06/07 11:12:19;;;;;;;9.88;5.50;;;;;;;34.39;61.65;100455.44;5057695;28;70118;-39
2022/06/07 11:15:11;;;;;;;8.25;5.32;;;;;;;34.82;61.70;100519.13;5044592;28;66510;-39
2022/06/07 11:18:02;;;;;;;13.30;5.65;;;;;;;34.99;61.04;100535.38;5047817;28;70068;-39
2022/06/07 11:21:08;;;;;;;11.10;5.97;;;;;;;35.01;61.16;100550.41;5048792;28;66801;-39
2022/06/07 11:23:56;;;;;;;11.38;5.63;;;;;;;35.07;60.44;100573.13;5052900;28;70534;-39
2022/06/07 11:26:58;;;;;;;10.63;5.63;;;;;;;35.03;60.21;100570.06;5047283;28;66628;-40
2022/06/07 11:29:32;;;;;;;9.18;5.47;;;;;;;35.18;59.63;100557.69;5053976;28;69554;-40
2022/06/07 11:32:03;;;;;;;6.53;5.60;;;;;;;35.17;59.24;100539.69;5048915;28;66234;-39
2022/06/07 11:34:37;;;;;;;12.63;5.43;;;;;;;34.88;59.70;100490.84;5051102;28;69534;-40
2022/06/07 11:37:16;;;;;;;9.57;5.90;;;;;;;35.20;59.92;100552.81;5046088;28;66606;-39
2022/06/07 11:39:54;;;;;;;6.25;5.53;;;;;;;35.23;59.50;100563.19;5046092;28;69074;-40
2022/06/07 11:42:43;;;;;;;7.15;6.50;;;;;;;34.81;60.56;100553.72;5047761;28;65009;-39
2022/06/07 11:45:24;;;;;;;7.15;6.55;;;;;;;34.70;58.79;100547.34;5053081;28;70046;-39
2022/06/07 11:48:11;;;;;;;10.33;8.13;;;;;;;34.16;59.39;100500.88;5055060;28;66551;-38
2022/06/07 11:50:53;;;;;;;11.10;8.32;;;;;;;34.11;58.87;100514.44;5057819;28;70163;-39
2022/06/07 11:53:32;;;;;;;13.60;7.80;;;;;;;34.31;58.55;100583.84;5048723;28;65857;-38
2022/06/07 11:56:26;;;;;;;8.18;7.35;;;;;;;34.01;57.56;100585.00;5060542;28;70087;-39
2022/06/07 11:59:20;;;;;;;6.97;6.38;;;;;;;33.78;56.52;100575.94;5055941;28;65134;-39
2022/06/07 12:01:54;;;;;;;13.80;7.03;;;;;;;33.85;55.55;100569.50;5038447;28;69827;-38
2022/06/07 12:04:30;;;;;;;18.45;7.03;;;;;;;33.35;54.30;100512.13;5045130;28;65350;-40
2022/06/07 12:07:24;;;;;;;12.55;7.07;;;;;;;33.51;54.21;100572.19;5046216;28;69581;-40
2022/06/07 12:09:58;;;;;;;12.50;6.43;;;;;;;33.20;52.88;100535.50;5047133;28;66326;-39
2022/06/07 12:12:36;;;;;;;10.65;5.72;;;;;;;33.35;52.38;100592.88;5049319;28;71111;-36
2022/06/07 12:15:19;;;;;;;6.88;6.10;;;;;;;33.35;51.88;100598.31;5051173;28;66703;-36
2022/06/07 12:18:02;;;;;;;11.80;6.03;;;;;;;33.28;51.85;100603.06;5053329;28;71116;-35
2022/06/07 12:20:37;;;;;;;8.23;6.15;;;;;;;33.17;52.15;100599.31;5043217;28;66595;-36
2022/06/07 12:23:23;;;;;;;6.20;5.63;;;;;;;32.94;51.73;100573.03;5051265;28;69613;-35
2022/06/07 12:30:27;;;;;;;5.78;5.18;;;;;;;32.83;51.16;100574.72;5041761;28;70528;-34
2022/06/07 12:33:34;;;;;;;6.35;5.75;;;;;;;32.82;50.67;100577.66;5043722;28;65894;-35
2022/06/07 12:36:35;;;;;;;14.38;4.95;;;;;;;32.73;50.16;100590.78;5021371;28;69802;-36
2022/06/07 12:39:16;;;;;;;7.28;4.65;;;;;;;32.71;49.42;100598.38;5034559;28;65196;-35
2022/06/07 12:42:25;;;;;;;6.87;4.20;;;;;;;32.60;48.92;100608.19;5028622;28;70447;-36
2022/06/07 12:57:06;;;;;;;6.75;3.72;;;;;;;32.37;46.58;100649.72;5044697;28;69906;-36